Time;durP1;ratioP1;P1;durP2;ratioP2;P2;SDS_P1;SDS_P2;PMS_P1;PMS_P2;Temp;Humidity;BMP_temperature;BMP_pressure;BME280_temperature;BME280_humidity;BME280_pressure;Samples;Min_cycle;Max_cycle;Signal;HPM_P1;HPM_P2
2022/10/28 00:01:27;;;;;;;47.33;22.08;;;;;;;11.61;100.00;100085.63;4393520;32;20171;-73
2022/10/28 00:03:56;;;;;;;41.80;20.67;;;;;;;11.62;100.00;100084.69;4401219;32;20106;-73
2022/10/28 00:06:32;;;;;;;42.10;20.83;;;;;;;11.57;100.00;100081.53;4408580;32;20128;-73
2022/10/28 00:09:00;;;;;;;52.45;22.58;;;;;;;11.57;100.00;100077.16;4395272;32;20094;-73
2022/10/28 00:11:29;;;;;;;53.35;23.00;;;;;;;11.55;100.00;100086.91;4393611;32;20116;-73
2022/10/28 00:13:57;;;;;;;44.15;21.62;;;;;;;11.56;100.00;100077.25;4393366;32;20165;-73
2022/10/28 00:16:27;;;;;;;50.47;22.90;;;;;;;11.58;100.00;100085.84;4393461;32;20122;-73
2022/10/28 00:18:54;;;;;;;45.78;20.92;;;;;;;11.57;100.00;100081.53;4393568;32;20120;-73
2022/10/28 00:21:24;;;;;;;48.40;22.33;;;;;;;11.66;100.00;100078.28;4393604;32;20157;-73
2022/10/28 00:23:52;;;;;;;47.67;21.85;;;;;;;11.69;100.00;100084.13;4393708;32;20477;-73
2022/10/28 00:26:21;;;;;;;46.60;21.65;;;;;;;11.59;100.00;100087.53;4393506;32;20107;-73
2022/10/28 00:28:53;;;;;;;48.13;21.90;;;;;;;11.58;100.00;100077.97;4393459;32;20545;-73
2022/10/28 00:31:22;;;;;;;43.45;22.15;;;;;;;11.56;100.00;100079.88;4393313;32;20292;-73
2022/10/28 00:33:49;;;;;;;43.08;21.15;;;;;;;11.51;100.00;100085.47;4393422;32;20118;-73
2022/10/28 00:36:19;;;;;;;47.50;22.55;;;;;;;11.50;100.00;100086.41;4393605;32;20121;-73
2022/10/28 00:38:48;;;;;;;39.03;20.98;;;;;;;11.58;100.00;100083.22;4393683;32;20114;-73
2022/10/28 00:41:19;;;;;;;41.20;21.73;;;;;;;11.62;100.00;100082.91;4393560;32;20153;-73
2022/10/28 00:43:51;;;;;;;45.53;21.33;;;;;;;11.61;100.00;100085.63;4393470;32;20105;-73
2022/10/28 00:46:19;;;;;;;48.95;21.80;;;;;;;11.67;100.00;100072.06;4393596;32;20804;-73
2022/10/28 00:48:50;;;;;;;47.72;22.15;;;;;;;11.69;100.00;100078.88;4379847;32;20106;-73
2022/10/28 00:51:19;;;;;;;51.95;22.00;;;;;;;11.68;100.00;100079.81;4379864;32;20087;-73
2022/10/28 00:53:47;;;;;;;49.88;22.40;;;;;;;11.68;100.00;100074.56;4379803;32;20129;-73
2022/10/28 00:56:15;;;;;;;43.53;22.73;;;;;;;11.63;100.00;100076.69;4379637;32;20684;-74
2022/10/28 00:58:43;;;;;;;49.88;22.60;;;;;;;11.54;100.00;100077.37;4379568;32;20595;-73
2022/10/28 01:01:10;;;;;;;52.95;23.35;;;;;;;11.54;100.00;100072.13;4393255;32;20158;-73
2022/10/28 01:03:37;;;;;;;47.67;22.27;;;;;;;11.50;100.00;100075.91;4399051;32;20098;-73
2022/10/28 01:06:05;;;;;;;47.20;21.48;;;;;;;11.48;100.00;100078.66;4408336;32;20151;-73
2022/10/28 01:08:32;;;;;;;48.97;22.05;;;;;;;11.32;100.00;100073.66;4384031;32;20120;-73
2022/10/28 01:11:43;;;;;;;57.03;23.38;;;;;;;11.39;100.00;100071.44;4393510;32;20117;-73
2022/10/28 01:14:19;;;;;;;48.33;20.60;;;;;;;11.36;100.00;100069.88;4345811;33;20099;-73
2022/10/28 01:17:01;;;;;;;47.70;20.67;;;;;;;11.41;100.00;100072.16;4333766;33;20670;-73
2022/10/28 01:19:31;;;;;;;49.40;21.27;;;;;;;11.44;100.00;100071.09;4346274;33;20535;-74
2022/10/28 01:22:19;;;;;;;52.47;22.52;;;;;;;11.40;100.00;100067.87;4345815;33;20482;-73
2022/10/28 01:24:52;;;;;;;56.37;20.95;;;;;;;11.53;100.00;100060.78;4345942;33;20450;-73
2022/10/28 01:27:40;;;;;;;54.08;21.60;;;;;;;11.39;100.00;100058.31;4346096;33;20303;-73
2022/10/28 01:30:10;;;;;;;55.47;22.70;;;;;;;11.40;100.00;100060.00;4345956;33;20119;-74
2022/10/28 01:33:13;;;;;;;50.10;20.90;;;;;;;11.47;100.00;100057.78;4345884;33;20658;-73
2022/10/28 01:35:56;;;;;;;48.83;20.58;;;;;;;11.43;100.00;100054.53;4333972;33;20177;-74
2022/10/28 01:38:31;;;;;;;57.72;21.25;;;;;;;11.49;100.00;100056.72;4334044;33;20319;-73
2022/10/28 01:41:06;;;;;;;49.28;21.67;;;;;;;11.53;100.00;100045.03;4346210;33;20155;-73
2022/10/28 01:44:19;;;;;;;52.72;21.52;;;;;;;11.34;100.00;100047.34;4333658;33;20096;-73
2022/10/28 01:47:15;;;;;;;56.67;21.75;;;;;;;11.40;100.00;100046.03;4386957;32;20120;-73
2022/10/28 01:49:49;;;;;;;57.10;21.08;;;;;;;11.43;100.00;100049.28;4393016;32;20158;-74
2022/10/28 01:52:17;;;;;;;;;;;;;;;11.35;100.00;100051.63;4379996;32;20094;-73
2022/10/28 01:54:47;;;;;;;67.95;20.02;;;;;;;11.25;100.00;100050.59;4379429;32;20013;-73
2022/10/28 01:57:15;;;;;;;66.72;22.33;;;;;;;11.24;100.00;100059.44;4379294;32;20086;-73
2022/10/28 01:59:44;;;;;;;49.55;20.80;;;;;;;11.23;100.00;100055.13;4379210;32;20097;-73
2022/10/28 02:02:14;;;;;;;61.10;22.05;;;;;;;11.25;100.00;100056.69;4379313;32;20107;-73
2022/10/28 02:04:41;;;;;;;75.18;21.83;;;;;;;11.30;100.00;100054.56;4405377;32;20140;-73
2022/10/28 02:07:08;;;;;;;47.33;21.27;;;;;;;11.27;100.00;100053.97;4405961;32;20082;-73
2022/10/28 02:09:47;;;;;;;91.30;23.85;;;;;;;11.25;100.00;100050.59;4392265;32;20552;-73
2022/10/28 02:12:32;;;;;;;68.10;22.95;;;;;;;11.20;100.00;100053.53;4392899;32;20357;-73
2022/10/28 02:15:18;;;;;;;85.32;24.17;;;;;;;11.23;100.00;100048.06;4379123;32;20124;-73
2022/10/28 02:18:14;;;;;;;96.63;22.60;;;;;;;11.17;100.00;100051.13;4379134;32;20074;-73
2022/10/28 02:21:00;;;;;;;103.65;21.58;;;;;;;11.24;100.00;100043.69;4392944;32;20583;-73
2022/10/28 02:23:52;;;;;;;99.03;23.20;;;;;;;11.21;100.00;100046.53;4392668;32;20214;-73
2022/10/28 02:26:33;;;;;;;150.65;24.20;;;;;;;11.16;100.00;100041.63;4379179;32;20090;-73
2022/10/28 02:29:26;;;;;;;142.95;23.38;;;;;;;11.25;100.00;100046.19;4378970;32;20145;-73
2022/10/28 02:31:55;;;;;;;101.05;25.20;;;;;;;11.19;100.00;100047.47;4379062;32;20498;-73
2022/10/28 02:34:27;;;;;;;108.97;23.80;;;;;;;11.15;100.00;100053.87;4379039;32;20218;-73
2022/10/28 02:36:54;;;;;;;79.20;22.23;;;;;;;11.11;100.00;100051.56;4392411;32;20100;-73
2022/10/28 02:39:27;;;;;;;141.50;23.40;;;;;;;11.05;100.00;100055.47;4378965;32;20109;-73
2022/10/28 02:42:03;;;;;;;171.30;25.05;;;;;;;11.18;100.00;100053.66;4379067;32;20164;-73
2022/10/28 02:44:37;;;;;;;147.23;25.75;;;;;;;11.09;100.00;100050.87;4378952;32;20565;-73
2022/10/28 02:47:09;;;;;;;134.30;24.33;;;;;;;11.10;100.00;100047.31;4392632;32;20121;-73
2022/10/28 02:49:38;;;;;;;147.62;22.75;;;;;;;11.06;100.00;100038.78;4379019;32;20563;-73
2022/10/28 02:52:06;;;;;;;148.50;21.67;;;;;;;11.13;100.00;100047.09;4379075;32;20129;-73
2022/10/28 02:54:49;;;;;;;159.35;24.08;;;;;;;11.16;100.00;100039.81;4378796;32;20542;-73
2022/10/28 02:57:19;;;;;;;264.42;27.13;;;;;;;11.11;100.00;100035.84;4378778;32;20151;-73
2022/10/28 02:59:53;;;;;;;164.68;25.60;;;;;;;11.00;100.00;100033.97;4392354;32;20766;-73
2022/10/28 03:02:21;;;;;;;136.85;23.48;;;;;;;11.06;100.00;100033.56;4379025;32;20124;-73
2022/10/28 03:04:49;;;;;;;294.85;27.65;;;;;;;11.12;100.00;100029.66;4405616;32;20165;-73
2022/10/28 03:07:16;;;;;;;259.50;28.67;;;;;;;11.03;100.00;100027.69;4404807;32;20128;-73
2022/10/28 03:09:43;;;;;;;247.00;27.77;;;;;;;11.08;100.00;100025.56;4392267;32;20121;-73
2022/10/28 03:12:10;;;;;;;242.07;29.87;;;;;;;11.00;100.00;100039.22;4392582;32;20765;-73
2022/10/28 03:14:38;;;;;;;302.73;29.33;;;;;;;10.94;100.00;100027.37;4392250;32;20541;-73
2022/10/28 03:17:06;;;;;;;232.32;25.70;;;;;;;11.07;100.00;100031.78;4392200;32;20109;-73
2022/10/28 03:19:33;;;;;;;169.93;24.73;;;;;;;11.06;100.00;100030.94;4392151;32;20511;-73
2022/10/28 03:22:00;;;;;;;228.85;27.62;;;;;;;11.08;100.00;100034.31;4392359;32;20455;-73
2022/10/28 03:24:27;;;;;;;213.35;26.33;;;;;;;11.16;100.00;100036.38;4392251;32;20114;-73
2022/10/28 03:26:54;;;;;;;261.60;33.22;;;;;;;11.02;100.00;100034.69;4392252;32;20094;-73
2022/10/28 03:29:22;;;;;;;203.98;27.30;;;;;;;11.05;100.00;100039.72;4392035;32;20156;-73
2022/10/28 03:31:49;;;;;;;253.50;29.90;;;;;;;10.97;100.00;100039.44;4392182;32;20129;-73
2022/10/28 03:34:16;;;;;;;231.63;28.00;;;;;;;11.00;100.00;100041.84;4392100;32;20531;-73
2022/10/28 03:36:43;;;;;;;210.05;27.17;;;;;;;11.04;100.00;100045.94;4392168;32;20102;-73
2022/10/28 03:39:13;;;;;;;143.37;23.85;;;;;;;10.99;100.00;100035.78;4392267;32;20488;-73
2022/10/28 03:41:40;;;;;;;242.13;31.23;;;;;;;10.99;100.00;100038.41;4392170;32;20090;-73
2022/10/28 03:44:07;;;;;;;225.00;28.12;;;;;;;11.05;100.00;100033.66;4392206;32;20102;-73
2022/10/28 03:46:34;;;;;;;172.60;25.85;;;;;;;11.07;100.00;100037.84;4391955;32;20102;-73
2022/10/28 03:49:02;;;;;;;379.00;36.72;;;;;;;11.01;100.00;100039.12;4391937;32;20126;-73
2022/10/28 03:51:29;;;;;;;289.25;29.40;;;;;;;10.95;100.00;100041.34;4391847;32;20444;-73
2022/10/28 03:53:57;;;;;;;189.55;27.77;;;;;;;11.03;100.00;100033.78;4391922;32;20130;-73
2022/10/28 03:56:24;;;;;;;308.58;32.67;;;;;;;11.06;100.00;100024.84;4391687;32;20505;-73
2022/10/28 03:58:51;;;;;;;294.23;28.52;;;;;;;11.13;100.00;100034.78;4391784;32;20098;-73
2022/10/28 04:01:23;;;;;;;157.90;25.80;;;;;;;11.04;100.00;100030.22;4391858;32;20117;-74
2022/10/28 04:03:51;;;;;;;190.43;27.67;;;;;;;11.11;100.00;100030.59;4399216;32;20488;-74
2022/10/28 04:06:18;;;;;;;214.63;27.75;;;;;;;11.12;100.00;100025.25;4407112;32;20145;-74
2022/10/28 04:08:44;;;;;;;294.05;28.80;;;;;;;11.07;100.00;100019.50;4394992;32;20139;-74
2022/10/28 04:11:12;;;;;;;323.15;31.17;;;;;;;11.06;100.00;100020.44;4391872;32;20098;-74
2022/10/28 04:13:39;;;;;;;217.55;27.60;;;;;;;11.01;100.00;100026.00;4391336;32;20106;-74
2022/10/28 04:16:06;;;;;;;254.25;29.25;;;;;;;11.06;100.00;100020.44;4391552;32;20128;-76
2022/10/28 04:18:34;;;;;;;173.65;23.90;;;;;;;11.10;100.00;100026.31;4391643;32;20090;-75
2022/10/28 04:21:02;;;;;;;228.60;28.08;;;;;;;11.14;100.00;100020.75;4391367;32;20098;-75
2022/10/28 04:23:29;;;;;;;112.03;22.15;;;;;;;11.03;100.00;100019.84;4391667;32;20098;-75
2022/10/28 04:25:57;;;;;;;224.02;25.35;;;;;;;11.10;100.00;100026.31;4397783;32;20186;-75
2022/10/28 04:28:24;;;;;;;106.97;23.20;;;;;;;11.13;100.00;100026.94;4399908;32;20083;-74
2022/10/28 04:30:51;;;;;;;270.33;30.52;;;;;;;11.15;100.00;100024.19;4391367;32;20110;-74
2022/10/28 04:33:18;;;;;;;121.82;21.75;;;;;;;11.06;100.00;100015.19;4391997;32;20128;-74
2022/10/28 04:35:45;;;;;;;312.63;27.70;;;;;;;11.11;100.00;100015.72;4393408;32;20110;-74
2022/10/28 04:38:15;;;;;;;107.22;21.08;;;;;;;11.11;100.00;100007.00;4397585;32;20093;-74
2022/10/28 04:40:42;;;;;;;314.55;27.33;;;;;;;11.13;100.00;100015.59;4408381;32;20626;-75
2022/10/28 04:43:10;;;;;;;221.02;25.55;;;;;;;11.07;100.00;100001.16;4393446;32;20167;-75
2022/10/28 04:45:38;;;;;;;224.70;24.70;;;;;;;11.15;100.00;100001.41;4394802;32;20115;-75
2022/10/28 04:48:05;;;;;;;227.85;25.23;;;;;;;11.17;100.00;99996.91;4393388;32;20094;-74
2022/10/28 04:50:32;;;;;;;211.93;25.52;;;;;;;11.18;100.00;99997.75;4393421;32;20174;-74
2022/10/28 04:52:59;;;;;;;228.32;27.23;;;;;;;11.22;100.00;99998.34;4400651;32;20177;-75
2022/10/28 04:55:27;;;;;;;272.48;28.80;;;;;;;11.16;100.00;99997.84;4408137;32;20098;-74
2022/10/28 04:57:58;;;;;;;199.73;24.67;;;;;;;10.99;100.00;99999.06;4405454;32;20162;-74
2022/10/28 05:00:26;;;;;;;193.32;23.58;;;;;;;11.09;100.00;99998.41;4403801;32;20102;-74
2022/10/28 05:02:54;;;;;;;384.83;30.65;;;;;;;11.12;100.00;99992.94;4398345;32;20098;-75
2022/10/28 05:05:21;;;;;;;322.60;31.62;;;;;;;11.05;100.00;99997.78;4401026;32;20110;-75
2022/10/28 05:07:48;;;;;;;353.62;32.92;;;;;;;11.03;100.00;100001.47;4405958;32;20102;-74
2022/10/28 05:10:16;;;;;;;264.52;26.08;;;;;;;10.88;100.00;99992.91;4406278;32;20189;-75
2022/10/28 05:12:44;;;;;;;414.13;29.08;;;;;;;10.97;100.00;99998.31;4407024;32;20086;-74
2022/10/28 05:15:12;;;;;;;248.60;25.20;;;;;;;11.06;100.00;100004.69;4406278;32;20162;-75
2022/10/28 05:17:43;;;;;;;222.52;24.10;;;;;;;11.11;100.00;99997.38;4406018;32;20086;-75
2022/10/28 05:20:11;;;;;;;306.08;27.52;;;;;;;11.17;100.00;100002.16;4400436;32;20165;-75
2022/10/28 05:22:44;;;;;;;351.48;27.00;;;;;;;11.11;100.00;100007.84;4407302;32;20120;-75
2022/10/28 05:25:12;;;;;;;;;;;;;;;11.09;100.00;100019.38;4407699;32;20082;-75
2022/10/28 05:27:39;;;;;;;337.50;28.55;;;;;;;11.01;100.00;100007.66;4406800;32;20048;-73
2022/10/28 05:30:07;;;;;;;173.68;19.52;;;;;;;10.98;100.00;100012.28;4406526;32;20126;-73
2022/10/28 05:32:34;;;;;;;216.68;22.67;;;;;;;11.04;100.00;100018.84;4405268;32;20130;-73
2022/10/28 05:35:02;;;;;;;383.10;27.77;;;;;;;11.05;100.00;100021.38;4403581;32;20128;-73
2022/10/28 05:37:29;;;;;;;361.30;28.60;;;;;;;11.04;100.00;100019.72;4401543;32;20102;-73
2022/10/28 05:39:56;;;;;;;466.00;34.10;;;;;;;11.07;100.00;100016.87;4402064;32;20102;-73
2022/10/28 05:42:23;;;;;;;329.67;24.27;;;;;;;10.96;100.00;100024.66;4401378;32;20124;-73
2022/10/28 05:44:50;;;;;;;352.60;26.90;;;;;;;10.94;100.00;100023.94;4402062;32;20132;-73
2022/10/28 05:47:17;;;;;;;412.70;32.97;;;;;;;10.93;100.00;100022.25;4399584;32;20094;-73
2022/10/28 05:49:44;;;;;;;355.50;27.37;;;;;;;10.88;100.00;100021.75;4398683;32;20233;-74
2022/10/28 05:52:11;;;;;;;270.90;23.30;;;;;;;10.84;100.00;100026.38;4404199;32;20093;-73
2022/10/28 05:54:39;;;;;;;266.00;22.73;;;;;;;10.86;100.00;100028.91;4406128;32;20145;-76
2022/10/28 05:57:06;;;;;;;306.40;24.87;;;;;;;10.89;100.00;100026.06;4405535;32;78202;-75
2022/10/28 05:59:33;;;;;;;179.43;20.45;;;;;;;10.89;100.00;100036.53;4405562;32;20143;-73
2022/10/28 06:02:00;;;;;;;292.90;26.58;;;;;;;10.87;100.00;100036.66;4406462;32;20101;-74
2022/10/28 06:28:23;;;;;;;219.77;22.37;;;;;;;10.21;100.00;100035.91;4469476;31;80475;-72
2022/10/28 06:30:51;;;;;;;241.35;23.75;;;;;;;10.34;100.00;100042.03;4495817;31;20165;-72
2022/10/28 06:33:18;;;;;;;285.05;24.75;;;;;;;10.43;100.00;100044.03;4495069;31;20092;-71
2022/10/28 06:35:45;;;;;;;249.20;21.25;;;;;;;10.55;100.00;100047.59;4496336;31;20097;-71
2022/10/28 06:38:13;;;;;;;223.52;21.08;;;;;;;10.62;100.00;100042.75;4496246;31;20122;-73
2022/10/28 06:40:40;;;;;;;255.37;20.05;;;;;;;10.69;100.00;100043.16;4496390;31;20163;-73
2022/10/28 06:43:08;;;;;;;238.25;24.23;;;;;;;10.70;100.00;100047.47;4494498;31;20151;-75
2022/10/28 06:45:35;;;;;;;121.18;17.70;;;;;;;10.66;100.00;100054.72;4482902;31;20159;-75
2022/10/28 06:48:04;;;;;;;124.47;16.67;;;;;;;10.73;100.00;100050.69;4493121;31;20100;-74
2022/10/28 06:50:33;;;;;;;172.55;17.15;;;;;;;10.87;100.00;100047.13;4490624;31;20805;-76
2022/10/28 06:53:01;;;;;;;271.42;22.60;;;;;;;10.97;100.00;100056.00;4488601;31;20100;-76
2022/10/28 06:55:29;;;;;;;146.62;16.98;;;;;;;10.87;100.00;100047.13;4496844;31;20186;-75
2022/10/28 06:58:00;;;;;;;212.65;17.02;;;;;;;11.04;100.00;100059.06;4493730;31;20592;-75
2022/10/28 07:00:29;;;;;;;134.87;15.32;;;;;;;11.11;100.00;100059.44;4493486;31;20135;-75
2022/10/28 07:02:57;;;;;;;158.35;16.25;;;;;;;10.96;100.00;100061.34;4495056;31;20116;-75
2022/10/28 07:05:26;;;;;;;142.90;16.05;;;;;;;10.99;100.00;100064.63;4492902;31;20112;-74
2022/10/28 07:07:53;;;;;;;187.88;17.45;;;;;;;11.10;100.00;100071.72;4496028;31;20151;-75
2022/10/28 07:10:21;;;;;;;252.45;20.50;;;;;;;11.12;100.00;100064.59;4494684;31;20104;-77
2022/10/28 07:12:48;;;;;;;179.70;16.60;;;;;;;11.12;100.00;100067.22;4495519;31;20100;-72
2022/10/28 07:15:15;;;;;;;193.10;15.30;;;;;;;10.96;100.00;100071.84;4496415;31;20280;-76
2022/10/28 07:17:42;;;;;;;102.85;13.85;;;;;;;11.12;100.00;100072.44;4496326;31;20099;-75
2022/10/28 07:20:10;;;;;;;114.00;14.50;;;;;;;11.16;100.00;100073.91;4496196;31;20108;-76
2022/10/28 07:22:37;;;;;;;109.37;14.65;;;;;;;11.18;100.00;100066.75;4494820;31;20170;-74
2022/10/28 07:25:05;;;;;;;152.50;16.40;;;;;;;11.28;100.00;100066.09;4496690;31;20129;-75
2022/10/28 07:27:32;;;;;;;179.93;20.02;;;;;;;11.26;100.00;100068.84;4493763;31;20522;-75
2022/10/28 07:29:59;;;;;;;106.75;15.80;;;;;;;11.04;100.00;100068.69;4490059;31;20507;-74
2022/10/28 07:32:30;;;;;;;235.52;19.20;;;;;;;11.29;100.00;100067.78;4495054;31;20833;-74
2022/10/28 07:34:57;;;;;;;251.15;20.75;;;;;;;11.17;100.00;100070.34;4496200;31;20407;-72
2022/10/28 07:37:25;;;;;;;207.87;20.75;;;;;;;11.07;100.00;100060.63;4494457;31;20179;-74
2022/10/28 07:39:52;;;;;;;138.77;14.20;;;;;;;11.17;100.00;100069.50;4485582;31;20149;-73
2022/10/28 07:42:19;;;;;;;175.00;19.42;;;;;;;11.12;100.00;100069.81;4484456;31;20096;-73
2022/10/28 07:44:46;;;;;;;207.93;18.33;;;;;;;11.21;100.00;100078.00;4485573;31;20143;-72
2022/10/28 07:47:13;;;;;;;179.20;15.20;;;;;;;11.09;100.00;100083.16;4483410;31;20162;-71
2022/10/28 07:49:40;;;;;;;213.00;19.45;;;;;;;11.16;100.00;100084.41;4484459;31;20445;-71
2022/10/28 07:52:08;;;;;;;203.52;14.73;;;;;;;11.28;100.00;100081.84;4485084;31;20131;-72
2022/10/28 07:54:35;;;;;;;274.25;19.75;;;;;;;11.41;100.00;100093.16;4485868;31;20108;-71
2022/10/28 07:57:02;;;;;;;352.55;25.40;;;;;;;11.40;100.00;100083.63;4483271;31;20096;-70
2022/10/28 07:59:30;;;;;;;280.15;18.58;;;;;;;11.28;100.00;100084.47;4470017;32;20135;-70
2022/10/28 08:01:57;;;;;;;254.02;20.88;;;;;;;11.18;100.00;100087.75;4484269;31;20548;-70
2022/10/28 08:04:24;;;;;;;153.38;15.20;;;;;;;11.22;100.00;100080.53;4477651;31;20153;-71
2022/10/28 08:06:51;;;;;;;355.92;26.77;;;;;;;11.28;100.00;100081.84;4467491;31;20161;-70
2022/10/28 08:09:19;;;;;;;284.23;19.62;;;;;;;11.29;100.00;100088.78;4477179;31;20077;-70
2022/10/28 08:11:47;;;;;;;252.85;18.10;;;;;;;11.19;100.00;100076.31;4478520;31;20993;-70
2022/10/28 08:14:14;;;;;;;270.42;21.15;;;;;;;11.13;100.00;100073.31;4480888;31;20097;-70
2022/10/28 08:16:41;;;;;;;282.00;22.67;;;;;;;11.26;100.00;100068.00;4484301;31;20104;-68
2022/10/28 08:19:09;;;;;;;280.98;22.42;;;;;;;11.29;100.00;100058.13;4484910;31;20126;-71
2022/10/28 08:21:36;;;;;;;176.68;17.33;;;;;;;11.35;100.00;100055.09;4485663;31;20909;-71
2022/10/28 08:24:03;;;;;;;234.32;19.10;;;;;;;11.36;100.00;100053.28;4485055;31;20466;-71
2022/10/28 08:26:31;;;;;;;161.85;14.82;;;;;;;11.30;100.00;100054.56;4484406;31;20097;-71
2022/10/28 08:29:00;;;;;;;367.65;24.83;;;;;;;11.43;100.00;100051.91;4478703;31;20134;-71
2022/10/28 08:31:27;;;;;;;258.45;18.15;;;;;;;11.27;100.00;100051.34;4485051;31;20130;-71
2022/10/28 08:33:54;;;;;;;189.15;15.90;;;;;;;11.27;100.00;100057.41;4483059;31;20115;-72
2022/10/28 08:36:21;;;;;;;174.70;15.73;;;;;;;11.52;100.00;100061.75;4473977;32;20487;-72
2022/10/28 08:38:48;;;;;;;284.70;19.37;;;;;;;11.60;100.00;100070.84;4481466;31;20108;-70
2022/10/28 08:41:27;;;;;;;347.15;23.60;;;;;;;11.64;100.00;100080.16;4484391;31;20143;-71
2022/10/28 08:44:23;;;;;;;188.35;16.00;;;;;;;11.64;100.00;100077.53;4484580;31;20167;-74
2022/10/28 08:47:12;;;;;;;182.40;14.38;;;;;;;11.59;100.00;100082.28;4485393;31;20190;-72
2022/10/28 08:49:40;;;;;;;219.00;16.90;;;;;;;11.60;100.00;100081.34;4482346;31;20132;-73
2022/10/28 08:52:28;;;;;;;177.55;15.88;;;;;;;11.79;100.00;100081.66;4475402;31;20076;-72
2022/10/28 08:55:11;;;;;;;248.55;19.23;;;;;;;12.02;100.00;100087.87;4471696;32;20084;-73
2022/10/28 08:57:50;;;;;;;194.55;15.00;;;;;;;11.88;100.00;100086.25;4485352;31;20165;-73
2022/10/28 09:00:25;;;;;;;62.40;12.02;;;;;;;11.83;100.00;100088.37;4482498;31;20144;-73
2022/10/28 09:02:55;;;;;;;187.50;18.40;;;;;;;12.13;100.00;100094.16;4473852;31;20196;-72
2022/10/28 09:05:24;;;;;;;215.10;15.85;;;;;;;12.18;100.00;100092.81;4465064;32;20122;-72
2022/10/28 09:07:52;;;;;;;128.68;14.77;;;;;;;12.25;100.00;100098.47;4464879;32;20485;-71
2022/10/28 09:10:41;;;;;;;200.02;18.02;;;;;;;12.33;100.00;100097.91;4460645;32;20130;-73
2022/10/28 09:13:34;;;;;;;87.28;12.85;;;;;;;12.14;100.00;100101.91;4465035;32;20504;-72
2022/10/28 09:16:30;;;;;;;279.17;18.60;;;;;;;12.04;100.00;100093.03;4468826;32;20476;-73
2022/10/28 09:19:19;;;;;;;56.72;12.02;;;;;;;11.98;100.00;100093.50;4418613;32;20125;-74
2022/10/28 09:21:48;;;;;;;304.58;19.80;;;;;;;12.30;100.00;100100.75;4418311;32;20105;-74
2022/10/28 09:24:22;;;;;;;81.37;12.10;;;;;;;12.07;100.00;100090.19;4415824;32;20647;-76
2022/10/28 09:27:08;;;;;;;193.45;17.90;;;;;;;12.28;100.00;100092.13;4402973;32;20098;-79
2022/10/28 09:29:49;;;;;;;144.02;13.38;;;;;;;12.31;100.00;100089.28;4409059;32;20137;-74
2022/10/28 09:32:42;;;;;;;306.17;23.80;;;;;;;12.38;100.00;100093.97;4416096;32;20106;-75
2022/10/28 09:35:13;;;;;;;35.80;12.23;;;;;;;12.45;100.00;100104.84;4406215;32;20461;-74
2022/10/28 09:37:44;;;;;;;289.23;21.67;;;;;;;12.51;100.00;100088.63;4416515;32;20119;-76
2022/10/28 09:40:19;;;;;;;182.52;15.40;;;;;;;12.49;100.00;100092.31;4420165;32;20125;-76
2022/10/28 09:42:58;;;;;;;85.07;11.68;;;;;;;12.57;100.00;100097.81;4413140;32;20153;-74
2022/10/28 09:45:29;;;;;;;88.65;12.85;;;;;;;12.71;100.00;100083.63;4414927;32;20151;-75
2022/10/28 09:48:12;;;;;;;100.68;13.07;;;;;;;12.37;100.00;100088.81;4407687;32;20089;-76
2022/10/28 09:50:39;;;;;;;157.85;16.40;;;;;;;12.47;100.00;100074.03;4394912;32;20148;-76
2022/10/28 09:53:15;;;;;;;80.18;13.13;;;;;;;12.25;100.00;100083.53;4418089;32;20113;-75
2022/10/28 09:55:42;;;;;;;52.08;12.20;;;;;;;12.13;100.00;100087.09;4425413;32;20587;-77
2022/10/28 09:58:11;;;;;;;168.00;17.25;;;;;;;12.32;100.00;100089.16;4452090;32;20461;-78
2022/10/28 10:00:38;;;;;;;169.37;15.85;;;;;;;12.58;100.00;100092.44;4457048;32;20148;-76
2022/10/28 10:03:06;;;;;;;68.53;13.82;;;;;;;12.37;100.00;100092.28;4468300;32;20207;-75
2022/10/28 10:05:38;;;;;;;117.82;14.02;;;;;;;12.25;100.00;100094.03;4477157;32;20151;-78
2022/10/28 10:08:05;;;;;;;98.35;13.40;;;;;;;12.17;100.00;100088.53;4457685;32;20450;-77
2022/10/28 10:10:36;;;;;;;221.23;18.12;;;;;;;12.14;100.00;100087.91;4463952;32;20272;-77
2022/10/28 10:13:05;;;;;;;249.37;21.48;;;;;;;11.92;100.00;100080.78;4462632;32;20123;-77
2022/10/28 10:15:38;;;;;;;224.88;20.17;;;;;;;11.98;100.00;100081.19;4451646;32;20705;-77
2022/10/28 10:18:06;;;;;;;239.77;16.10;;;;;;;11.67;100.00;100079.94;4451848;32;20433;-76
2022/10/28 10:20:48;;;;;;;92.85;14.30;;;;;;;11.82;100.00;100078.81;4451317;32;20109;-77
2022/10/28 10:23:29;;;;;;;45.90;13.15;;;;;;;12.12;100.00;100093.28;4454874;32;20561;-74
2022/10/28 10:26:06;;;;;;;96.97;11.82;;;;;;;12.26;100.00;100089.62;4452440;32;20096;-74
2022/10/28 10:28:48;;;;;;;60.60;15.38;;;;;;;12.39;100.00;100094.81;4452204;32;20111;-77
2022/10/28 10:31:19;;;;;;;37.60;13.43;;;;;;;12.24;100.00;100097.63;4455866;32;20585;-74
2022/10/28 10:33:52;;;;;;;65.78;13.30;;;;;;;12.36;100.00;100089.78;4457497;32;20513;-71
2022/10/28 10:36:22;;;;;;;55.15;10.93;;;;;;;12.58;100.00;100097.72;4457687;32;20126;-73
2022/10/28 10:38:52;;;;;;;34.67;10.95;;;;;;;12.68;100.00;100081.22;4458334;32;20144;-73
2022/10/28 10:41:34;;;;;;;48.08;12.45;;;;;;;12.59;100.00;100070.44;4459119;32;20101;-75
2022/10/28 10:44:21;;;;;;;89.68;13.10;;;;;;;12.65;100.00;100074.41;4457548;32;20709;-75
2022/10/28 10:47:03;;;;;;;98.90;15.70;;;;;;;12.42;100.00;100070.91;4464046;32;20097;-74
2022/10/28 10:49:36;;;;;;;156.70;16.73;;;;;;;12.16;100.00;100076.34;4466893;32;20145;-75
2022/10/28 10:52:14;;;;;;;53.42;14.63;;;;;;;12.37;100.00;100070.41;4466125;32;20771;-74
2022/10/28 10:55:05;;;;;;;141.85;19.17;;;;;;;12.46;100.00;100072.38;4457691;32;20100;-74
2022/10/28 10:57:32;;;;;;;63.50;16.85;;;;;;;12.37;100.00;100070.41;4460314;32;20180;-73
2022/10/28 11:00:00;;;;;;;165.37;19.73;;;;;;;12.24;100.00;100076.59;4458092;32;20129;-74
2022/10/28 11:02:31;;;;;;;53.55;14.07;;;;;;;12.29;100.00;100078.06;4455486;32;20189;-74
2022/10/28 11:05:01;;;;;;;62.58;15.35;;;;;;;12.36;100.00;100074.84;4464916;32;21996;-75
2022/10/28 11:07:30;;;;;;;103.97;16.60;;;;;;;12.58;100.00;100071.41;4458955;32;20108;-74
2022/10/28 11:09:58;;;;;;;56.03;14.35;;;;;;;12.62;100.00;100065.94;4462649;32;20093;-74
2022/10/28 11:12:35;;;;;;;91.68;16.17;;;;;;;12.60;100.00;100074.75;4464372;32;20394;-75
2022/10/28 11:15:15;;;;;;;129.48;17.77;;;;;;;12.47;100.00;100075.81;4465237;32;20150;-75
2022/10/28 11:18:22;;;;;;;174.77;19.50;;;;;;;12.05;100.00;100073.66;4466120;32;20089;-75
2022/10/28 11:20:54;;;;;;;153.18;17.23;;;;;;;11.86;100.00;100072.38;4408766;32;20125;-73
2022/10/28 11:23:35;;;;;;;125.80;17.35;;;;;;;11.69;100.00;100072.81;4417685;32;20128;-74
2022/10/28 11:26:05;;;;;;;99.68;15.68;;;;;;;11.79;100.00;100068.53;4411054;32;20129;-73
2022/10/28 11:28:57;;;;;;;56.03;15.90;;;;;;;11.99;100.00;100066.25;4418161;32;20094;-75
2022/10/28 11:31:45;;;;;;;149.18;17.75;;;;;;;12.09;100.00;100067.25;4418594;32;20102;-75
2022/10/28 11:34:30;;;;;;;182.50;17.08;;;;;;;11.93;100.00;100069.34;4418641;32;20110;-74
2022/10/28 11:37:34;;;;;;;83.95;16.23;;;;;;;11.68;100.00;100065.88;4414315;32;20109;-75
2022/10/28 11:40:19;;;;;;;166.02;16.62;;;;;;;11.94;100.00;100068.41;4418984;32;20140;-74
2022/10/28 11:43:15;;;;;;;243.80;18.73;;;;;;;11.93;100.00;100062.31;4418577;32;20109;-73